Time;durP1;ratioP1;P1;durP2;ratioP2;P2;SDS_P1;SDS_P2;PMS_P1;PMS_P2;Temp;Humidity;BMP_temperature;BMP_pressure;BME280_temperature;BME280_humidity;BME280_pressure;Samples;Min_cycle;Max_cycle;Signal;HPM_P1;HPM_P2
2021/09/09 00:01:59;;;;;;;7.25;3.85;;;20.10;69.00;;;;;;5036861;28;20021;-73
2021/09/09 00:04:25;;;;;;;7.15;3.47;;;20.10;68.60;;;;;;5038647;28;20028;-73
2021/09/09 00:06:51;;;;;;;8.13;3.88;;;20.10;68.60;;;;;;5038373;28;20031;-73
2021/09/09 00:09:20;;;;;;;7.82;3.95;;;20.10;68.70;;;;;;5038468;28;20030;-73
2021/09/09 00:11:46;;;;;;;9.00;3.83;;;20.10;69.00;;;;;;5038161;28;20029;-74
2021/09/09 00:14:12;;;;;;;7.22;3.17;;;20.00;69.60;;;;;;5038713;28;20029;-73
2021/09/09 00:16:38;;;;;;;8.98;3.92;;;20.10;69.40;;;;;;5038065;28;20029;-74
2021/09/09 00:19:04;;;;;;;6.30;3.70;;;20.10;70.90;;;;;;5038411;28;20022;-73
2021/09/09 00:21:30;;;;;;;6.70;3.80;;;20.10;70.90;;;;;;5038090;28;20387;-74
2021/09/09 00:23:56;;;;;;;8.93;3.90;;;20.20;70.40;;;;;;5038090;28;20438;-72
2021/09/09 00:26:22;;;;;;;8.32;3.90;;;20.20;71.40;;;;;;5038050;28;20092;-72
2021/09/09 00:28:49;;;;;;;9.35;4.43;;;20.20;69.40;;;;;;5038163;28;20084;-72
2021/09/09 00:31:15;;;;;;;7.70;3.55;;;20.20;69.00;;;;;;5038051;28;20030;-72
2021/09/09 00:33:43;;;;;;;8.63;3.95;;;20.30;71.10;;;;;;5037652;28;20054;-72
2021/09/09 00:36:09;;;;;;;8.75;4.38;;;20.30;69.60;;;;;;5038028;28;20456;-72
2021/09/09 00:38:35;;;;;;;9.10;3.80;;;20.30;70.10;;;;;;5038129;28;20080;-72
2021/09/09 00:41:01;;;;;;;8.30;4.57;;;20.30;70.00;;;;;;5036435;28;20116;-73
2021/09/09 00:43:27;;;;;;;6.97;4.40;;;20.30;69.40;;;;;;5037995;28;20028;-73
2021/09/09 00:45:54;;;;;;;7.55;3.92;;;20.30;70.10;;;;;;5037676;28;20057;-73
2021/09/09 00:48:21;;;;;;;8.32;4.25;;;20.30;69.70;;;;;;5037401;28;20048;-73
2021/09/09 00:50:48;;;;;;;8.43;4.78;;;20.20;70.00;;;;;;5036438;28;20056;-73
2021/09/09 00:53:14;;;;;;;10.55;4.15;;;20.20;70.50;;;;;;5037750;28;20021;-73
2021/09/09 00:55:40;;;;;;;6.57;3.88;;;20.20;70.00;;;;;;5037438;28;20021;-73
2021/09/09 00:58:08;;;;;;;8.77;3.65;;;20.20;69.40;;;;;;5037801;28;20025;-73
2021/09/09 01:00:35;;;;;;;10.70;4.53;;;20.20;69.00;;;;;;5037542;28;20095;-73
2021/09/09 01:03:01;;;;;;;9.75;4.18;;;20.20;70.10;;;;;;5037492;28;20013;-73
2021/09/09 01:05:27;;;;;;;7.60;4.53;;;20.20;69.80;;;;;;5037501;28;20105;-73
2021/09/09 01:07:53;;;;;;;8.43;4.28;;;20.20;69.50;;;;;;5037692;28;20487;-73
2021/09/09 01:10:19;;;;;;;9.48;3.97;;;20.20;70.90;;;;;;5037436;28;20026;-73
2021/09/09 01:12:45;;;;;;;7.80;4.18;;;20.20;70.50;;;;;;5037682;28;20028;-73
2021/09/09 01:15:11;;;;;;;9.70;4.75;;;20.20;71.10;;;;;;5037457;28;20080;-73
2021/09/09 01:17:37;;;;;;;8.48;4.18;;;20.20;71.30;;;;;;5037180;28;20476;-74
2021/09/09 01:20:04;;;;;;;8.23;4.32;;;20.20;71.20;;;;;;5037220;28;20025;-74
2021/09/09 01:22:30;;;;;;;9.50;4.50;;;20.20;70.70;;;;;;5037503;28;20023;-74
2021/09/09 01:24:57;;;;;;;7.85;4.20;;;20.20;71.50;;;;;;5035794;28;20454;-74
2021/09/09 01:27:23;;;;;;;8.55;4.40;;;20.20;71.20;;;;;;5037458;28;20029;-74
2021/09/09 01:29:49;;;;;;;10.55;4.65;;;20.20;72.00;;;;;;5036540;28;20030;-73
2021/09/09 01:32:16;;;;;;;11.80;4.25;;;20.20;71.40;;;;;;5037045;28;20063;-73
2021/09/09 01:34:42;;;;;;;7.75;4.10;;;20.20;70.90;;;;;;5037320;28;20030;-74
2021/09/09 01:37:10;;;;;;;9.00;4.60;;;20.20;71.40;;;;;;5037153;28;20026;-73
2021/09/09 01:39:38;;;;;;;9.30;4.90;;;20.20;72.30;;;;;;5037056;28;20100;-73
2021/09/09 01:42:04;;;;;;;9.90;3.92;;;20.20;72.90;;;;;;5037076;28;20053;-73
2021/09/09 01:44:30;;;;;;;8.73;4.32;;;20.20;73.60;;;;;;5037095;28;20024;-73
2021/09/09 01:46:57;;;;;;;7.65;3.95;;;20.10;73.10;;;;;;5036908;28;20057;-74
2021/09/09 01:49:23;;;;;;;9.35;4.50;;;20.20;73.30;;;;;;5035719;28;20110;-73
2021/09/09 01:51:49;;;;;;;8.48;4.10;;;20.20;74.30;;;;;;5037128;28;20049;-73
2021/09/09 01:54:15;;;;;;;6.82;3.70;;;20.10;74.80;;;;;;5036785;28;20030;-73
2021/09/09 01:56:40;;;;;;;10.68;3.88;;;20.20;74.10;;;;;;5035658;28;20032;-73
2021/09/09 01:59:06;;;;;;;9.30;4.15;;;20.10;73.80;;;;;;5037239;28;20067;-74
2021/09/09 02:01:32;;;;;;;11.73;4.13;;;20.20;74.90;;;;;;5040706;28;20553;-73
2021/09/09 02:03:58;;;;;;;7.05;3.58;;;20.10;74.90;;;;;;5040592;28;20136;-74
2021/09/09 02:06:24;;;;;;;6.65;3.70;;;20.10;73.10;;;;;;5040771;28;20029;-74
2021/09/09 02:08:50;;;;;;;7.85;3.63;;;20.10;73.70;;;;;;5040648;28;20483;-74
2021/09/09 02:11:16;;;;;;;12.30;3.60;;;20.10;73.70;;;;;;5040653;28;20025;-74
2021/09/09 02:13:41;;;;;;;8.32;4.13;;;20.20;73.10;;;;;;5040670;28;20025;-74
2021/09/09 02:16:08;;;;;;;8.77;3.58;;;20.20;73.60;;;;;;5040495;28;20037;-74
2021/09/09 02:18:34;;;;;;;8.75;3.90;;;20.10;72.90;;;;;;5040229;28;20029;-74
2021/09/09 02:21:01;;;;;;;8.32;4.03;;;20.10;73.10;;;;;;5040497;28;20022;-74
2021/09/09 02:23:26;;;;;;;8.60;3.70;;;20.10;72.80;;;;;;5040247;28;20084;-74
2021/09/09 02:25:53;;;;;;;8.18;4.15;;;20.10;72.00;;;;;;5040365;28;20430;-74
2021/09/09 02:28:19;;;;;;;8.00;3.45;;;20.00;73.80;;;;;;5040312;28;20029;-74
2021/09/09 02:30:44;;;;;;;7.35;3.95;;;20.00;72.30;;;;;;5040430;28;20021;-73
2021/09/09 02:33:11;;;;;;;7.85;4.15;;;20.10;74.10;;;;;;5039706;28;20054;-74
2021/09/09 02:35:37;;;;;;;9.95;3.90;;;20.10;73.10;;;;;;5040276;28;20021;-74
2021/09/09 02:38:04;;;;;;;8.93;3.97;;;20.10;72.10;;;;;;5038734;28;20083;-74
2021/09/09 02:40:29;;;;;;;7.82;3.28;;;20.00;71.40;;;;;;5040068;28;20028;-74
2021/09/09 02:42:55;;;;;;;7.68;4.03;;;20.00;71.90;;;;;;5039960;28;20021;-74
2021/09/09 02:45:21;;;;;;;6.80;3.70;;;20.00;72.70;;;;;;5040062;28;20120;-74
2021/09/09 02:47:47;;;;;;;6.43;3.40;;;20.00;71.80;;;;;;5039823;28;20502;-74
2021/09/09 02:50:13;;;;;;;6.20;3.28;;;20.00;71.20;;;;;;5040505;28;20416;-74
2021/09/09 02:52:39;;;;;;;9.25;3.67;;;20.00;70.60;;;;;;5039782;28;20113;-74
2021/09/09 02:55:06;;;;;;;7.30;3.28;;;20.00;70.90;;;;;;5039894;28;20029;-74
2021/09/09 02:57:32;;;;;;;9.73;3.78;;;20.00;71.00;;;;;;5039666;28;20660;-74
2021/09/09 02:59:59;;;;;;;8.40;3.55;;;20.00;72.00;;;;;;5039762;28;20022;-74
2021/09/09 03:02:25;;;;;;;10.13;4.32;;;20.00;71.60;;;;;;5039611;28;20021;-74
2021/09/09 03:04:51;;;;;;;10.07;4.03;;;20.00;73.40;;;;;;5039830;28;20468;-74
2021/09/09 03:07:18;;;;;;;6.65;3.50;;;19.90;72.30;;;;;;5039654;28;20495;-74
2021/09/09 03:09:44;;;;;;;9.35;3.42;;;19.90;71.90;;;;;;5039672;28;20037;-74
2021/09/09 03:12:10;;;;;;;7.95;3.55;;;19.90;71.30;;;;;;5039376;28;20487;-74
2021/09/09 03:14:36;;;;;;;7.47;3.72;;;19.90;71.00;;;;;;5039699;28;20096;-74
2021/09/09 03:17:02;;;;;;;6.65;3.35;;;19.90;70.40;;;;;;5039022;28;20438;-74
2021/09/09 03:19:28;;;;;;;5.30;3.10;;;19.90;71.20;;;;;;5039402;28;20077;-74
2021/09/09 03:21:54;;;;;;;5.57;3.42;;;19.90;71.40;;;;;;5038063;28;20025;-74
2021/09/09 03:24:20;;;;;;;5.30;2.83;;;19.90;70.50;;;;;;5039268;28;20075;-74
2021/09/09 03:26:46;;;;;;;8.93;4.35;;;20.00;70.30;;;;;;5039062;28;20025;-74
2021/09/09 03:29:11;;;;;;;9.63;4.38;;;19.90;71.10;;;;;;5039405;28;20026;-74
2021/09/09 03:31:37;;;;;;;8.68;3.20;;;19.90;71.50;;;;;;5038821;28;20105;-73
2021/09/09 03:34:03;;;;;;;7.25;3.05;;;19.90;71.20;;;;;;5037541;28;20053;-73
2021/09/09 03:36:29;;;;;;;10.93;3.80;;;19.90;71.70;;;;;;5038914;28;20025;-74
2021/09/09 03:38:55;;;;;;;9.82;3.80;;;20.00;72.70;;;;;;5039109;28;20411;-74
2021/09/09 03:41:21;;;;;;;9.15;4.43;;;19.90;72.00;;;;;;5038974;28;20096;-74
2021/09/09 03:43:48;;;;;;;8.35;4.22;;;20.00;72.50;;;;;;5037593;28;20021;-74
2021/09/09 03:46:14;;;;;;;6.88;3.95;;;19.90;73.60;;;;;;5038578;28;20014;-73
2021/09/09 03:48:40;;;;;;;11.68;3.58;;;19.90;73.70;;;;;;5038856;28;20045;-73
2021/09/09 03:51:06;;;;;;;9.25;3.58;;;19.90;74.20;;;;;;5038728;28;20528;-73
2021/09/09 03:53:31;;;;;;;7.57;3.15;;;19.90;73.80;;;;;;5038589;28;20032;-74
2021/09/09 03:55:57;;;;;;;8.20;3.78;;;19.90;73.20;;;;;;5037471;28;20022;-74
2021/09/09 03:58:23;;;;;;;9.55;3.40;;;19.90;74.80;;;;;;5038598;28;20043;-74
2021/09/09 04:00:49;;;;;;;7.43;3.03;;;19.90;73.80;;;;;;5037236;28;20032;-74
2021/09/09 04:03:15;;;;;;;7.75;3.00;;;19.90;73.20;;;;;;5038423;28;20028;-74
2021/09/09 04:05:41;;;;;;;7.95;3.65;;;19.90;72.70;;;;;;5037839;28;20107;-74
2021/09/09 04:08:07;;;;;;;8.55;3.20;;;19.90;73.80;;;;;;5038486;28;20025;-74
2021/09/09 04:10:34;;;;;;;11.50;3.22;;;19.90;73.10;;;;;;5038098;28;20021;-74
2021/09/09 04:13:00;;;;;;;8.00;3.35;;;19.90;72.90;;;;;;5038415;28;20022;-74
2021/09/09 04:15:26;;;;;;;10.93;3.22;;;19.90;74.00;;;;;;5038267;28;20040;-74
2021/09/09 04:17:51;;;;;;;6.93;3.30;;;19.90;73.70;;;;;;5038164;28;20022;-74
2021/09/09 04:20:17;;;;;;;11.88;4.20;;;19.90;74.00;;;;;;5038099;28;20376;-74
2021/09/09 04:22:43;;;;;;;10.07;4.07;;;20.00;74.90;;;;;;5037707;28;20502;-73
2021/09/09 04:25:10;;;;;;;11.32;3.95;;;20.00;75.50;;;;;;5037945;28;20029;-74
2021/09/09 04:27:36;;;;;;;10.80;3.60;;;20.00;74.70;;;;;;5038109;28;20100;-74
2021/09/09 04:30:03;;;;;;;8.65;3.30;;;19.90;74.90;;;;;;5037999;28;20057;-74
2021/09/09 04:32:28;;;;;;;13.32;4.20;;;19.90;73.70;;;;;;5037560;28;20033;-74
2021/09/09 04:34:54;;;;;;;11.52;4.15;;;19.80;76.20;;;;;;5038034;28;20036;-74
2021/09/09 04:37:20;;;;;;;8.93;4.15;;;19.80;76.00;;;;;;5037933;28;20514;-74
2021/09/09 04:39:46;;;;;;;8.88;3.97;;;19.80;76.20;;;;;;5037718;28;20063;-74
2021/09/09 04:42:12;;;;;;;8.77;4.00;;;19.80;75.30;;;;;;5037850;28;20028;-74
2021/09/09 04:44:37;;;;;;;12.85;4.15;;;19.80;74.90;;;;;;5036418;28;20104;-74
2021/09/09 04:47:03;;;;;;;8.85;3.55;;;19.80;75.60;;;;;;5037624;28;20028;-74
2021/09/09 04:49:29;;;;;;;13.40;4.30;;;19.80;75.40;;;;;;5037971;28;20025;-74
2021/09/09 04:51:55;;;;;;;12.35;3.88;;;19.80;75.30;;;;;;5037666;28;20096;-74
2021/09/09 04:54:21;;;;;;;13.05;4.07;;;19.70;75.10;;;;;;5037792;28;20033;-74
2021/09/09 04:56:47;;;;;;;12.68;4.22;;;19.70;75.90;;;;;;5037616;28;20028;-74
2021/09/09 04:59:13;;;;;;;9.90;4.57;;;19.70;76.50;;;;;;5037399;28;20029;-74
2021/09/09 05:01:39;;;;;;;13.25;4.07;;;19.70;75.70;;;;;;5037403;28;20151;-74
2021/09/09 05:04:04;;;;;;;10.13;3.90;;;19.70;76.50;;;;;;5037419;28;20089;-74
2021/09/09 05:06:30;;;;;;;13.23;4.20;;;19.70;75.50;;;;;;5037715;28;20053;-74
2021/09/09 05:08:56;;;;;;;13.70;4.75;;;19.70;75.80;;;;;;5037300;28;20029;-72
2021/09/09 05:11:22;;;;;;;15.95;4.47;;;19.80;76.10;;;;;;5036356;28;20025;-74
2021/09/09 05:13:48;;;;;;;11.85;4.20;;;19.80;76.50;;;;;;5037381;28;20068;-73
2021/09/09 05:16:14;;;;;;;13.85;3.90;;;19.70;76.20;;;;;;5037063;28;20068;-74
2021/09/09 05:18:40;;;;;;;14.25;4.28;;;19.70;76.60;;;;;;5037065;28;20049;-74
2021/09/09 05:21:05;;;;;;;14.07;4.22;;;19.70;76.80;;;;;;5037336;28;20044;-72
2021/09/09 05:23:31;;;;;;;14.43;4.90;;;19.70;77.00;;;;;;5037147;28;20028;-76
2021/09/09 05:25:57;;;;;;;9.40;4.10;;;19.70;77.40;;;;;;5036192;28;20079;-80
2021/09/09 05:28:23;;;;;;;9.40;4.15;;;19.70;76.70;;;;;;5037133;28;20030;-86
2021/09/09 05:30:49;;;;;;;9.07;4.07;;;19.60;76.90;;;;;;5037445;28;20028;-87
2021/09/09 05:33:15;;;;;;;11.95;3.92;;;19.60;77.40;;;;;;5035349;28;20499;-80
2021/09/09 05:35:41;;;;;;;16.88;4.57;;;19.70;77.10;;;;;;5040271;28;20052;-79
2021/09/09 05:38:10;;;;;;;11.82;4.03;;;19.60;77.00;;;;;;5041024;28;20025;-79
2021/09/09 05:40:36;;;;;;;9.02;3.53;;;19.60;77.90;;;;;;5041208;28;20075;-78
2021/09/09 05:43:01;;;;;;;18.05;4.53;;;19.70;77.20;;;;;;5041027;28;20021;-77
2021/09/09 05:45:27;;;;;;;12.80;4.47;;;19.70;77.20;;;;;;5041108;28;20010;-74
2021/09/09 05:47:53;;;;;;;8.35;3.90;;;19.70;76.30;;;;;;5040808;28;20151;-73
2021/09/09 05:50:19;;;;;;;15.38;4.30;;;19.70;76.50;;;;;;5040048;28;20076;-73
2021/09/09 05:52:46;;;;;;;12.10;3.90;;;19.70;78.00;;;;;;5040942;28;20025;-74
2021/09/09 05:55:12;;;;;;;13.48;3.88;;;19.70;76.60;;;;;;5039816;28;20035;-76
2021/09/09 05:57:38;;;;;;;13.45;3.95;;;19.70;77.00;;;;;;5040867;28;20434;-75
2021/09/09 06:00:06;;;;;;;12.77;3.88;;;19.80;76.50;;;;;;5040396;28;20049;-76
2021/09/09 06:02:33;;;;;;;12.00;4.47;;;19.80;76.20;;;;;;5038723;28;20036;-75
2021/09/09 06:05:00;;;;;;;12.25;4.03;;;19.80;76.90;;;;;;5040810;28;20053;-74
2021/09/09 06:07:28;;;;;;;11.85;3.97;;;19.80;76.20;;;;;;5039254;28;20034;-76
2021/09/09 06:09:53;;;;;;;12.48;4.72;;;19.80;77.80;;;;;;5040535;28;20049;-75
2021/09/09 06:12:25;;;;;;;16.90;4.22;;;19.90;77.60;;;;;;5040589;28;20033;-76
2021/09/09 06:14:51;;;;;;;9.90;3.88;;;19.90;76.80;;;;;;5040688;28;20097;-75
2021/09/09 06:17:17;;;;;;;10.90;4.85;;;19.90;77.90;;;;;;5040277;28;20041;-75
2021/09/09 06:19:43;;;;;;;9.00;3.90;;;19.90;78.30;;;;;;5040584;28;20040;-75
2021/09/09 06:22:09;;;;;;;10.63;4.32;;;19.90;77.20;;;;;;5040654;28;20025;-76
2021/09/09 06:24:35;;;;;;;10.73;3.80;;;19.90;76.90;;;;;;5040415;28;20081;-76
2021/09/09 06:27:00;;;;;;;10.63;4.00;;;19.90;77.40;;;;;;5040205;28;20057;-76
2021/09/09 06:29:26;;;;;;;12.68;4.43;;;19.90;77.30;;;;;;5040404;28;20053;-75
2021/09/09 06:31:52;;;;;;;11.07;4.40;;;20.00;77.70;;;;;;5040189;28;20093;-75
2021/09/09 06:34:18;;;;;;;10.73;4.55;;;19.90;76.80;;;;;;5040046;28;20408;-77
2021/09/09 06:36:44;;;;;;;9.52;3.50;;;19.90;77.20;;;;;;5038751;28;20038;-77
2021/09/09 06:39:10;;;;;;;11.35;4.40;;;20.00;76.90;;;;;;5040044;28;20041;-76
2021/09/09 06:41:36;;;;;;;7.80;3.50;;;19.90;77.80;;;;;;5040036;28;20396;-77
2021/09/09 06:44:02;;;;;;;11.15;4.28;;;19.90;77.90;;;;;;5040067;28;20739;-78
2021/09/09 06:46:28;;;;;;;10.27;4.05;;;19.90;78.00;;;;;;5039103;28;20085;-77
2021/09/09 06:48:54;;;;;;;7.95;3.70;;;19.90;77.40;;;;;;5040057;28;20510;-77
2021/09/09 06:51:21;;;;;;;11.23;4.03;;;19.90;78.00;;;;;;5039870;28;20432;-77
2021/09/09 06:53:48;;;;;;;14.63;4.93;;;19.90;78.50;;;;;;5039738;28;20026;-77
2021/09/09 06:56:14;;;;;;;9.98;4.82;;;20.00;78.10;;;;;;5039869;28;20098;-76
2021/09/09 06:58:40;;;;;;;9.40;3.63;;;20.00;78.30;;;;;;5040072;28;20483;-76
2021/09/09 07:01:05;;;;;;;9.88;3.65;;;20.10;77.60;;;;;;5039420;28;20052;-77
2021/09/09 07:03:31;;;;;;;18.30;4.63;;;20.10;78.90;;;;;;5039714;28;20148;-77
2021/09/09 07:05:57;;;;;;;12.18;4.32;;;20.20;78.60;;;;;;5038581;28;20052;-77
2021/09/09 07:08:23;;;;;;;8.38;3.70;;;20.20;77.60;;;;;;5039664;28;20044;-77
2021/09/09 07:10:49;;;;;;;11.57;4.15;;;20.30;76.40;;;;;;5039380;28;20025;-77
2021/09/09 07:13:18;;;;;;;11.82;4.07;;;20.30;77.90;;;;;;5039593;28;20053;-77
2021/09/09 07:15:44;;;;;;;10.88;4.43;;;20.40;77.20;;;;;;5039625;28;20037;-76
2021/09/09 07:18:11;;;;;;;11.98;4.50;;;20.40;78.00;;;;;;5039170;28;20029;-76
2021/09/09 07:20:37;;;;;;;14.75;4.00;;;20.40;78.30;;;;;;5039502;28;20041;-76
2021/09/09 07:23:03;;;;;;;12.02;4.60;;;20.50;77.70;;;;;;5038004;28;20029;-76
2021/09/09 07:25:28;;;;;;;11.57;3.90;;;20.50;78.00;;;;;;5039319;28;20036;-76
2021/09/09 07:27:54;;;;;;;12.25;4.15;;;20.60;77.60;;;;;;5039253;28;20025;-77
2021/09/09 07:30:20;;;;;;;11.65;4.53;;;20.80;77.80;;;;;;5039311;28;20036;-77
2021/09/09 07:32:46;;;;;;;9.82;3.75;;;20.80;77.20;;;;;;5038689;28;20052;-76
2021/09/09 07:35:12;;;;;;;9.02;4.38;;;20.90;76.60;;;;;;5039575;28;20108;-76
2021/09/09 07:37:39;;;;;;;12.68;3.85;;;21.00;76.80;;;;;;5037633;28;20399;-76
2021/09/09 07:40:06;;;;;;;14.93;4.82;;;21.10;76.50;;;;;;5037690;28;20022;-75
2021/09/09 07:42:32;;;;;;;13.75;5.07;;;21.20;76.20;;;;;;5038810;28;20096;-76
2021/09/09 07:44:57;;;;;;;17.35;6.85;;;21.30;75.80;;;;;;5038982;28;20060;-76
2021/09/09 07:47:24;;;;;;;14.48;5.28;;;21.40;75.50;;;;;;5038710;28;20022;-76
2021/09/09 07:49:49;;;;;;;12.20;5.50;;;21.40;75.40;;;;;;5038906;28;20036;-76
2021/09/09 07:52:15;;;;;;;13.80;4.70;;;21.40;75.30;;;;;;5038720;28;20029;-76
2021/09/09 07:54:41;;;;;;;10.43;4.32;;;21.40;74.90;;;;;;5038919;28;20487;-76
2021/09/09 07:57:07;;;;;;;10.35;4.38;;;21.50;75.30;;;;;;5037671;28;20032;-76
2021/09/09 07:59:33;;;;;;;11.45;3.40;;;21.50;75.60;;;;;;5038630;28;20105;-76
2021/09/09 08:01:59;;;;;;;9.73;4.13;;;21.50;74.90;;;;;;5037165;28;20108;-77
2021/09/09 08:04:25;;;;;;;11.10;3.70;;;21.50;75.00;;;;;;5037507;28;20056;-75
2021/09/09 08:06:50;;;;;;;13.38;3.50;;;21.50;74.40;;;;;;5038369;28;20029;-75
2021/09/09 08:09:16;;;;;;;12.77;3.83;;;21.60;74.30;;;;;;5038539;28;20037;-75
2021/09/09 08:11:42;;;;;;;12.57;4.15;;;21.60;74.60;;;;;;5038305;28;20507;-75
2021/09/09 08:14:08;;;;;;;14.80;3.90;;;21.70;75.30;;;;;;5037448;28;20114;-75
2021/09/09 08:16:34;;;;;;;13.40;4.43;;;21.80;74.70;;;;;;5037962;28;20026;-75
2021/09/09 08:19:00;;;;;;;11.63;4.32;;;22.00;74.50;;;;;;5038542;28;20021;-75
2021/09/09 08:21:25;;;;;;;7.88;3.60;;;22.20;74.60;;;;;;5038216;28;20029;-75
2021/09/09 08:23:51;;;;;;;12.00;3.88;;;22.60;75.40;;;;;;5037075;28;20044;-76
2021/09/09 08:26:17;;;;;;;12.20;4.45;;;23.40;75.00;;;;;;5036825;28;20021;-77
2021/09/09 08:28:44;;;;;;;8.23;4.68;;;23.90;73.00;;;;;;5038229;28;20110;-76
2021/09/09 08:31:10;;;;;;;11.38;4.03;;;24.10;71.00;;;;;;5038011;28;20021;-76
2021/09/09 08:33:35;;;;;;;11.70;4.05;;;24.20;70.80;;;;;;5037772;28;20504;-75
2021/09/09 08:36:05;;;;;;;10.43;4.18;;;24.40;70.80;;;;;;5037873;28;20064;-74
2021/09/09 08:38:31;;;;;;;10.30;4.38;;;24.80;70.80;;;;;;5038068;28;20033;-74
2021/09/09 08:40:59;;;;;;;14.73;4.32;;;25.30;69.10;;;;;;5037807;28;20021;-74
2021/09/09 08:43:25;;;;;;;12.57;4.55;;;25.40;67.10;;;;;;5037987;28;20112;-73
2021/09/09 08:45:53;;;;;;;12.55;4.32;;;25.30;66.00;;;;;;5036647;28;20054;-74
2021/09/09 08:48:19;;;;;;;11.70;4.00;;;25.50;67.40;;;;;;5038097;28;20025;-76
2021/09/09 08:50:46;;;;;;;11.88;4.43;;;26.00;66.60;;;;;;5036540;28;20040;-74
2021/09/09 08:53:15;;;;;;;11.10;3.75;;;26.10;65.20;;;;;;5037715;28;20108;-72
2021/09/09 08:55:43;;;;;;;11.40;4.40;;;25.90;64.20;;;;;;5037449;28;20541;-74
2021/09/09 08:58:09;;;;;;;10.20;4.50;;;25.60;63.80;;;;;;5038027;28;20029;-74
2021/09/09 09:00:35;;;;;;;11.35;4.72;;;25.40;64.30;;;;;;5037461;28;20427;-74
2021/09/09 09:03:01;;;;;;;11.35;4.28;;;25.20;65.10;;;;;;5037439;28;20025;-74
2021/09/09 09:05:27;;;;;;;12.23;4.35;;;25.30;65.70;;;;;;5037400;28;20049;-74
2021/09/09 09:08:01;;;;;;;11.00;4.28;;;25.50;66.40;;;;;;5037717;28;20036;-74
2021/09/09 09:10:28;;;;;;;10.68;4.20;;;25.90;66.60;;;;;;5037205;28;20017;-74
2021/09/09 09:12:54;;;;;;;10.13;3.92;;;26.20;64.00;;;;;;5037698;28;20029;-73
2021/09/09 09:15:22;;;;;;;10.02;4.07;;;26.10;63.40;;;;;;5037462;28;20014;-74
2021/09/09 09:17:56;;;;;;;10.20;4.22;;;25.90;64.80;;;;;;5037439;28;20425;-74
2021/09/09 09:20:25;;;;;;;10.35;3.83;;;26.30;64.90;;;;;;5035994;28;20026;-74
2021/09/09 09:22:52;;;;;;;9.00;3.72;;;26.70;65.30;;;;;;5037560;28;20061;-74
2021/09/09 09:25:18;;;;;;;12.40;4.20;;;26.90;63.50;;;;;;5037305;28;20026;-74
2021/09/09 09:27:46;;;;;;;12.02;4.70;;;26.70;62.40;;;;;;5037431;28;20075;-74
2021/09/09 09:30:13;;;;;;;12.82;4.13;;;26.30;62.70;;;;;;5037335;28;20030;-74
2021/09/09 09:32:47;;;;;;;12.85;4.60;;;26.00;62.90;;;;;;5036817;28;20081;-74
2021/09/09 09:35:14;;;;;;;10.40;3.75;;;25.60;63.40;;;;;;5025352;28;20053;-74
2021/09/09 09:38:10;;;;;;;12.05;4.38;;;25.30;63.90;;;;;;5037145;28;20034;-74
2021/09/09 09:40:43;;;;;;;15.23;5.10;;;25.00;65.10;;;;;;5036482;28;20083;-74
2021/09/09 09:43:10;;;;;;;12.15;4.80;;;24.90;66.00;;;;;;5037108;28;20029;-74
2021/09/09 09:45:50;;;;;;;14.57;4.93;;;24.90;67.70;;;;;;5037595;28;20033;-74
2021/09/09 09:48:26;;;;;;;12.48;5.47;;;25.00;67.80;;;;;;5037279;28;20033;-75
2021/09/09 09:50:52;;;;;;;9.35;4.78;;;25.70;68.70;;;;;;5035704;28;20368;-74
2021/09/09 09:53:19;;;;;;;11.50;4.30;;;26.70;67.30;;;;;;5035742;28;20113;-74
2021/09/09 09:55:46;;;;;;;14.65;5.05;;;27.50;64.30;;;;;;5036863;28;20527;-73
2021/09/09 09:58:12;;;;;;;10.68;4.78;;;27.70;61.10;;;;;;5037110;28;20033;-74
2021/09/09 10:00:38;;;;;;;11.40;4.65;;;27.50;60.50;;;;;;5036922;28;20017;-74
2021/09/09 10:03:04;;;;;;;10.13;5.10;;;27.10;60.70;;;;;;5035495;28;20021;-73
2021/09/09 10:05:32;;;;;;;11.68;4.88;;;26.70;61.50;;;;;;5036878;28;20100;-73
2021/09/09 10:08:02;;;;;;;10.32;4.38;;;26.50;62.00;;;;;;5037025;28;20029;-73
2021/09/09 10:10:28;;;;;;;11.63;4.13;;;26.40;62.50;;;;;;5036549;28;20021;-74
2021/09/09 10:12:53;;;;;;;9.32;4.38;;;26.30;62.70;;;;;;5036929;28;20032;-73
2021/09/09 10:15:23;;;;;;;9.98;4.53;;;26.30;62.80;;;;;;5036814;28;20025;-74
2021/09/09 10:17:52;;;;;;;9.70;4.35;;;26.30;63.10;;;;;;5035275;28;20034;-75
2021/09/09 10:20:40;;;;;;;9.88;4.00;;;26.90;64.80;;;;;;5037357;28;20095;-75
2021/09/09 10:23:09;;;;;;;9.23;4.18;;;27.90;63.70;;;;;;5040357;28;20455;-75
2021/09/09 10:25:53;;;;;;;11.52;4.80;;;28.70;63.50;;;;;;5039101;28;20026;-74
2021/09/09 10:28:37;;;;;;;8.60;4.47;;;29.60;60.00;;;;;;5040303;28;20030;-74
2021/09/09 10:31:14;;;;;;;9.13;4.72;;;29.90;57.70;;;;;;5040318;28;20029;-75
2021/09/09 10:33:46;;;;;;;10.50;4.70;;;29.70;57.60;;;;;;5038922;28;20053;-75
2021/09/09 10:36:38;;;;;;;7.15;4.03;;;29.60;57.40;;;;;;5040192;28;20026;-74
2021/09/09 10:39:05;;;;;;;9.10;4.35;;;29.40;57.30;;;;;;5040283;28;20043;-75
2021/09/09 10:41:31;;;;;;;9.98;5.30;;;29.40;58.60;;;;;;5040249;28;20116;-75
2021/09/09 10:43:59;;;;;;;7.93;3.97;;;29.40;59.10;;;;;;5040108;28;20060;-73
2021/09/09 10:46:34;;;;;;;11.43;4.50;;;29.30;55.70;;;;;;5039770;28;20152;-74
2021/09/09 10:49:07;;;;;;;10.23;4.40;;;29.10;55.50;;;;;;5040054;28;20021;-73
2021/09/09 10:51:33;;;;;;;10.68;4.53;;;28.60;55.70;;;;;;5040228;28;20036;-74
2021/09/09 10:53:59;;;;;;;11.88;4.90;;;28.20;56.40;;;;;;5039801;28;20085;-74
2021/09/09 10:56:26;;;;;;;11.13;4.75;;;27.80;56.70;;;;;;5040533;28;20036;-74
2021/09/09 10:59:19;;;;;;;10.73;5.00;;;27.50;57.60;;;;;;5039816;28;20018;-74
2021/09/09 11:01:47;;;;;;;9.98;4.18;;;27.30;58.00;;;;;;5039795;28;20557;-74
2021/09/09 11:04:26;;;;;;;10.93;4.50;;;27.30;58.80;;;;;;5039598;28;20472;-74
2021/09/09 11:06:52;;;;;;;9.40;4.40;;;27.50;60.10;;;;;;5040097;28;20045;-74
2021/09/09 11:09:18;;;;;;;8.70;4.32;;;27.80;60.30;;;;;;5039803;28;20057;-74
2021/09/09 11:11:48;;;;;;;12.23;5.00;;;28.10;60.80;;;;;;5039734;28;20079;-74
2021/09/09 11:14:14;;;;;;;11.77;4.60;;;28.70;61.80;;;;;;5039573;28;20096;-74
2021/09/09 11:16:40;;;;;;;9.60;4.45;;;29.50;60.50;;;;;;5039811;28;20116;-74
2021/09/09 11:19:09;;;;;;;8.55;4.10;;;30.20;58.10;;;;;;5038677;28;20025;-74
2021/09/09 11:21:41;;;;;;;9.27;3.92;;;30.80;57.00;;;;;;5039519;28;20021;-74
2021/09/09 11:24:11;;;;;;;;;;;31.10;55.60;;;;;;5039727;28;20476;-74
2021/09/09 11:26:38;;;;;;;8.25;3.67;;;31.20;55.40;;;;;;5039632;28;19958;-73
2021/09/09 11:29:05;;;;;;;10.75;3.72;;;31.10;53.60;;;;;;5039405;28;20051;-73
2021/09/09 11:31:50;;;;;;;9.02;4.28;;;30.90;53.00;;;;;;5039055;28;20438;-74
2021/09/09 11:34:32;;;;;;;9.85;4.07;;;30.50;51.90;;;;;;5030576;28;20125;-73
2021/09/09 11:37:02;;;;;;;;;;;29.90;52.60;;;;;;5039863;28;20077;-73
2021/09/09 11:39:32;;;;;;;9.48;3.65;;;29.40;53.10;;;;;;5039138;28;19905;-74
2021/09/09 11:41:59;;;;;;;10.52;4.63;;;28.80;54.00;;;;;;5039028;28;20076;-73
2021/09/09 11:44:33;;;;;;;8.93;4.15;;;28.50;55.30;;;;;;5039107;28;20103;-73
2021/09/09 11:47:10;;;;;;;10.20;4.10;;;28.20;56.10;;;;;;5039108;28;20026;-73
2021/09/09 11:49:36;;;;;;;14.10;4.75;;;28.00;56.70;;;;;;5039069;28;20025;-74
2021/09/09 11:52:04;;;;;;;11.98;4.30;;;27.80;56.90;;;;;;5038995;28;20029;-74
2021/09/09 11:54:34;;;;;;;9.68;4.15;;;27.80;57.70;;;;;;5038612;28;20025;-74
2021/09/09 11:57:06;;;;;;;9.23;4.10;;;28.10;57.50;;;;;;5038888;28;20037;-74
2021/09/09 11:59:38;;;;;;;11.30;3.95;;;28.40;57.50;;;;;;5038820;28;20437;-75
2021/09/09 12:02:08;;;;;;;7.28;3.67;;;28.70;57.00;;;;;;5038410;28;20028;-74
2021/09/09 12:04:40;;;;;;;10.15;3.92;;;29.00;56.30;;;;;;5038727;28;20025;-73
2021/09/09 12:07:07;;;;;;;10.25;4.05;;;29.20;54.90;;;;;;5038644;28;20036;-74
2021/09/09 12:09:38;;;;;;;8.73;4.57;;;29.30;54.60;;;;;;5038706;28;20034;-74
2021/09/09 12:12:05;;;;;;;8.82;3.80;;;29.30;54.80;;;;;;5038266;28;20439;-74
2021/09/09 12:14:32;;;;;;;9.88;4.53;;;29.10;54.70;;;;;;5038455;28;20513;-73
2021/09/09 12:17:14;;;;;;;13.50;4.65;;;29.00;54.60;;;;;;5038047;28;20505;-74
2021/09/09 12:19:56;;;;;;;9.02;4.03;;;29.10;55.40;;;;;;5038825;28;20018;-73
2021/09/09 12:22:40;;;;;;;;;;;29.00;55.10;;;;;;5038882;28;20440;-74
2021/09/09 12:25:25;;;;;;;10.43;4.20;;;28.80;55.30;;;;;;5038091;28;19909;-74
2021/09/09 12:28:08;;;;;;;10.13;4.32;;;28.60;56.00;;;;;;5038426;28;20022;-73
2021/09/09 12:30:48;;;;;;;8.32;3.90;;;28.40;55.50;;;;;;5038152;28;20036;-74
2021/09/09 12:33:20;;;;;;;8.18;4.05;;;28.10;55.80;;;;;;5037954;28;20514;-74
2021/09/09 12:36:05;;;;;;;7.60;4.07;;;27.90;56.00;;;;;;5036795;28;20034;-74
2021/09/09 12:38:43;;;;;;;10.73;3.65;;;27.80;56.50;;;;;;5037835;28;20427;-73
2021/09/09 12:41:20;;;;;;;12.10;4.85;;;27.70;56.70;;;;;;5038038;28;20033;-74
2021/09/09 12:43:52;;;;;;;10.23;4.32;;;27.50;57.30;;;;;;5037298;28;20081;-74
2021/09/09 12:46:26;;;;;;;9.68;3.85;;;27.50;57.50;;;;;;5037711;28;20022;-74